Latest Weather Observations for Broken Hill Airport

IDN60801

Issued at 7:53 am EST Tuesday 23 April 2024 (issued every 10 minutes, with the page automatically refreshed every 10 minutes)

About weather observations | Map of weather stations | Latest weather observations for NSW | Other Formats
Station Details ID: 047048 Name: BROKEN HILL AIRPORT AWS Lat: -32.00 Lon: 141.47 Height: 281.3 m
Data from the previous 72 hours. | See also: Recent months at Broken Hill Airport

Observations are collected in the New South Wales time zone (Eastern Standard Time) which includes daylight savings in the summer period. Therefore 'Rain since 9am' totals and other values are based on the New South Wales time zone, which may differ from local time.

Date/Time
EST
Temp
°C
App
Temp
°C
Dew
Point
°C
Rel
Hum
%
Delta-T
°C
Wind Press
QNH
hPa
Press
MSL
hPa
Rain since
9am
mm
Dir  Spd
km/h
Gust
km/h
Spd
kts
Gust
kts
23/07:30am 14.1 10.0 4.1 51 4.6 NNE 15 17 8 9 1022.3 1021.7 0.0
23/07:00am 13.3 9.1 3.9 53 4.3 NNE 15 15 8 8 1022.1 1021.5 0.0
23/06:30am 13.1 9.3 3.7 53 4.3 NNE 13 15 7 8 1021.9 1021.3 0.0
23/06:00am 13.4 9.1 3.5 51 4.5 NNE 15 15 8 8 1021.9 1021.3 0.0
23/05:30am 14.3 10.6 4.3 51 4.7 NNE 13 13 7 7 1021.8 1021.2 0.0
23/05:00am 13.8 10.5 4.7 54 4.3 NNE 11 13 6 7 1021.7 1021.1 0.0
23/04:30am 11.8 9.1 3.6 57 3.7 NNE 7 9 4 5 1021.6 1021.0 0.0
23/04:00am 11.7 8.1 3.2 56 3.8 NE 11 13 6 7 1021.6 1021.0 0.0
23/03:30am 11.0 7.8 3.3 59 3.4 NE 9 13 5 7 1021.6 1021.0 0.0
23/03:00am 11.9 8.7 2.9 54 4.0 NNE 9 11 5 6 1021.9 1021.3 0.0
23/02:30am 13.2 9.7 3.3 51 4.5 NNE 11 15 6 8 1022.1 1021.5 0.0
23/02:00am 13.5 11.1 4.4 54 4.2 NNE 6 13 3 7 1022.5 1021.9 0.0
23/01:30am 11.0 8.2 1.8 53 4.0 NNE 6 7 3 4 1023.0 1022.3 0.0
23/01:00am 14.1 11.4 3.6 49 4.8 N 7 9 4 5 1023.1 1022.4 0.0
23/12:30am 13.6 10.7 2.8 48 4.8 NNE 7 9 4 5 1022.8 1022.2 0.0
23/12:00am 14.8 10.9 3.3 46 5.3 NE 13 13 7 7 1023.0 1022.3 0.0
 
Date/Time
EST
Temp
°C
App
Temp
°C
Dew
Point
°C
Rel
Hum
%
Delta-T
°C
Wind Press
QNH
hPa
Press
MSL
hPa
Rain since
9am
mm
Dir  Spd
km/h
Gust
km/h
Spd
kts
Gust
kts
22/11:30pm 14.5 10.9 2.7 45 5.3 NE 11 13 6 7 1023.3 1022.6 0.0
22/11:00pm 14.5 11.5 2.1 43 5.5 NNE 7 11 4 6 1023.5 1022.8 0.0
22/10:30pm 15.2 11.5 2.1 41 5.9 NE 11 13 6 7 1023.7 1023.0 0.0
22/10:00pm 16.6 12.6 2.6 39 6.4 ENE 13 15 7 8 1023.7 1023.0 0.0
22/09:30pm 17.2 12.8 2.8 38 6.6 ENE 15 15 8 8 1023.7 1023.0 0.0
22/09:00pm 16.9 12.8 2.1 37 6.7 ENE 13 15 7 8 1023.5 1022.8 0.0
22/08:30pm 16.7 12.0 1.2 35 6.9 E 15 15 8 8 1023.3 1022.6 0.0
22/08:00pm 17.4 13.1 1.0 33 7.3 ESE 13 20 7 11 1023.2 1022.5 0.0
22/07:30pm 18.4 14.4 0.5 30 8.0 E 11 11 6 6 1023.1 1022.4 0.0
22/07:00pm 19.6 16.0 0.6 28 8.6 E 9 11 5 6 1023.1 1022.4 0.0
22/06:30pm 19.1 14.8 0.7 29 8.3 E 13 15 7 8 1022.6 1022.0 0.0
22/06:00pm 22.4 18.4 0.3 23 10.1 E 11 13 6 7 1022.6 1022.0 0.0
22/05:30pm 24.6 19.8 0.2 20 11.4 ESE 15 20 8 11 1022.5 1021.9 0.0
22/05:00pm 25.3 20.8 0.0 19 11.8 SE 13 17 7 9 1022.5 1021.9 0.0
22/04:30pm 25.9 21.1 0.5 19 12.0 E 15 19 8 10 1022.7 1022.1 0.0
22/04:00pm 26.1 22.1 0.7 19 12.1 ENE 11 17 6 9 1023.0 1022.3 0.0
22/03:30pm 26.5 23.3 1.0 19 12.2 ESE 7 11 4 6 1023.1 1022.4 0.0
22/03:00pm 26.6 23.5 0.4 18 12.4 NNW 6 9 3 5 1023.4 1022.7 0.0
22/02:30pm 26.4 23.5 1.7 20 12.0 NE 6 9 3 5 1023.7 1023.0 0.0
22/02:00pm 25.8 22.4 1.8 21 11.6 W 9 17 5 9 1024.0 1023.3 0.0
22/01:30pm 25.5 21.9 2.9 23 11.2 ENE 11 15 6 8 1024.3 1023.6 0.0
22/01:00pm 25.1 22.8 2.5 23 11.0 SSE 4 11 2 6 1025.0 1024.4 0.0
22/12:30pm 24.9 21.3 3.0 24 10.7 NNW 11 17 6 9 1025.5 1024.9 0.0
22/12:00pm 24.3 20.7 3.0 25 10.4 E 11 17 6 9 1026.0 1025.4 0.0
22/11:30am 23.4 18.6 2.8 26 10.0 NE 17 20 9 11 1026.4 1025.8 0.0
22/11:00am 22.6 17.9 3.2 28 9.4 NE 17 20 9 11 1026.9 1026.2 0.0
22/10:30am 22.5 17.1 2.6 27 9.6 NE 20 28 11 15 1027.1 1026.4 0.0
22/10:00am 21.4 16.3 3.1 30 8.8 NE 19 28 10 15 1027.3 1026.6 0.0
22/09:30am 20.8 15.8 3.5 32 8.3 ENE 19 24 10 13 1027.4 1026.7 0.0
22/09:00am 19.2 15.5 4.2 37 7.2 ENE 13 17 7 9 1027.4 1026.7 0.0
22/08:30am 16.9 13.6 4.3 43 6.0 ENE 11 13 6 7 1027.4 1026.7 0.0
22/08:00am 15.1 11.4 4.2 48 5.1 NE 13 17 7 9 1027.3 1026.6 0.0
22/07:30am 12.3 8.6 4.3 58 3.7 NE 13 15 7 8 1027.0 1026.3 0.0
22/07:00am 10.5 5.9 3.5 62 3.1 ENE 17 17 9 9 1026.9 1026.2 0.0
22/06:30am 9.0 4.5 2.1 62 2.9 ENE 15 17 8 9 1026.6 1026.0 0.0
22/06:00am 11.0 6.6 2.8 57 3.6 ENE 15 17 8 9 1026.3 1025.7 0.0
22/05:30am 10.6 6.3 3.4 61 3.2 E 15 17 8 9 1026.1 1025.5 0.0
22/05:00am 11.4 7.4 2.9 56 3.7 ENE 13 13 7 7 1026.0 1025.4 0.0
22/04:30am 11.7 6.6 3.2 56 3.8 E 19 19 10 10 1025.7 1025.1 0.0
22/04:00am 11.8 7.0 2.5 53 4.1 ENE 17 19 9 10 1025.6 1025.0 0.0
22/03:30am 12.6 8.6 3.0 52 4.3 ENE 13 13 7 7 1025.7 1025.1 0.0
22/03:00am 12.8 7.6 2.6 50 4.5 E 19 20 10 11 1025.7 1025.1 0.0
22/02:30am 11.6 6.8 2.4 53 4.0 E 17 20 9 11 1026.2 1025.6 0.0
22/02:00am 11.8 7.3 2.0 51 4.2 E 15 15 8 8 1026.6 1026.0 0.0
22/01:30am 12.2 8.1 2.4 51 4.3 E 13 13 7 7 1026.9 1026.2 0.0
22/01:00am 11.8 8.4 1.7 50 4.3 E 9 13 5 7 1027.1 1026.4 0.0
22/12:30am 12.4 8.7 2.6 51 4.3 ESE 11 13 6 7 1027.3 1026.6 0.0
22/12:00am 12.5 9.4 1.5 47 4.7 ESE 7 11 4 6 1027.4 1026.7 0.0
 
Date/Time
EST
Temp
°C
App
Temp
°C
Dew
Point
°C
Rel
Hum
%
Delta-T
°C
Wind Press
QNH
hPa
Press
MSL
hPa
Rain since
9am
mm
Dir  Spd
km/h
Gust
km/h
Spd
kts
Gust
kts
21/11:30pm 13.7 10.0 2.3 46 5.1 SE 11 13 6 7 1027.5 1026.9 0.0
21/11:00pm 14.4 9.9 2.0 43 5.5 SE 15 17 8 9 1027.6 1027.0 0.0
21/10:30pm 14.1 9.5 1.7 43 5.5 SE 15 17 8 9 1027.8 1027.2 0.0
21/10:00pm 14.2 9.9 1.2 41 5.6 SSE 13 17 7 9 1027.9 1027.3 0.0
21/09:30pm 13.8 9.9 1.1 42 5.5 SSE 11 13 6 7 1027.8 1027.2 0.0
21/09:27pm 13.8 9.9 1.1 42 5.5 SSE 11 13 6 7 1027.8 1027.2 0.0
21/09:04pm 14.0 10.1 1.0 41 5.6 SSE 11 15 6 8 1027.7 1027.1 0.0
21/09:00pm 14.2 9.9 0.8 40 5.8 SSE 13 15 7 8 1027.7 1027.1 0.0
21/08:30pm 15.3 11.0 1.1 38 6.3 SE 13 15 7 8 1027.6 1027.0 0.0
21/08:00pm 16.5 14.7 1.4 36 6.7 CALM 0 0 0 0 1027.6 1027.0 0.0
21/07:30pm 16.7 13.2 1.2 35 6.9 SE 9 11 5 6 1027.4 1026.7 0.0
21/07:00pm 17.7 14.1 0.8 32 7.5 SE 9 11 5 6 1027.3 1026.6 0.0
21/06:30pm 18.2 13.5 0.8 31 7.8 SSE 15 17 8 9 1027.0 1026.3 0.0
21/06:00pm 20.6 15.9 1.0 27 9.0 SSE 15 19 8 10 1026.9 1026.2 0.0
21/05:30pm 21.8 15.9 1.5 26 9.5 SSE 22 26 12 14 1026.6 1026.0 0.0
21/05:00pm 22.2 16.8 1.3 25 9.7 SSE 19 26 10 14 1026.5 1025.9 0.0
21/04:30pm 22.9 17.3 1.3 24 10.2 SSE 20 26 11 14 1026.5 1025.9 0.0
21/04:00pm 22.6 17.2 1.0 24 10.0 SE 19 26 10 14 1026.8 1026.1 0.0
21/03:30pm 22.3 17.6 0.8 24 9.9 SE 15 22 8 12 1026.9 1026.2 0.0
21/03:00pm 22.2 17.9 1.3 25 9.7 SE 13 22 7 12 1027.1 1026.4 0.0
21/02:30pm 21.8 16.9 2.0 27 9.4 SSE 17 28 9 15 1027.2 1026.5 0.0
21/02:00pm 21.6 16.7 2.3 28 9.1 SSE 17 26 9 14 1027.6 1027.0 0.0
21/01:30pm 20.9 16.1 2.7 30 8.7 SE 17 24 9 13 1028.0 1027.4 0.0
21/01:00pm 20.5 16.2 3.3 32 8.2 ESE 15 24 8 13 1028.7 1028.1 0.0
21/12:30pm 19.7 14.6 3.0 33 7.9 SE 19 26 10 14 1029.2 1028.6 0.0
21/12:00pm 19.2 14.5 3.4 35 7.5 SSE 17 22 9 12 1029.8 1029.2 0.0
21/11:30am 18.3 14.1 3.8 38 6.9 SSE 15 20 8 11 1030.0 1029.4 0.0
21/11:00am 17.5 14.1 4.1 41 6.3 S 11 20 6 11 1030.1 1029.5 0.0
21/10:30am 16.4 12.3 4.1 44 5.8 SSW 15 20 8 11 1030.1 1029.5 0.0
21/10:00am 14.8 10.7 4.2 49 4.9 SSW 15 20 8 11 1030.1 1029.5 0.0
21/09:30am 13.6 8.7 3.9 52 4.4 SSW 19 24 10 13 1030.1 1029.5 0.0
21/09:00am 12.5 8.0 4.2 57 3.8 SSW 17 20 9 11 1030.1 1029.5 0.0
21/08:30am 10.8 6.2 3.6 61 3.2 SSW 17 20 9 11 1030.1 1029.5 0.0
21/08:00am 8.8 5.2 2.8 66 2.6 SSW 11 17 6 9 1029.8 1029.2 0.0
21/07:30am 6.5 3.1 1.6 71 2.0 SW 9 11 5 6 1029.5 1028.9 0.0
21/07:00am 6.4 2.9 1.5 71 2.0 SW 9 11 5 6 1029.0 1028.4 0.0
21/06:30am 6.9 3.5 1.6 69 2.2 SW 9 11 5 6 1028.9 1028.3 0.0
21/06:00am 7.7 4.7 2.0 67 2.4 SW 7 9 4 5 1028.6 1028.0 0.0
21/05:30am 7.7 4.2 1.5 65 2.6 SW 9 11 5 6 1028.4 1027.8 0.0
21/05:00am 7.5 4.1 1.8 67 2.4 SSW 9 11 5 6 1028.1 1027.5 0.0
21/04:30am 8.5 5.5 1.9 63 2.8 SSW 7 9 4 5 1027.8 1027.2 0.0
21/04:00am 10.2 6.1 2.3 58 3.4 SSE 13 15 7 8 1027.9 1027.3 0.0
21/03:30am 11.9 7.1 2.6 53 4.1 SE 17 20 9 11 1027.8 1027.2 0.0
21/03:00am 12.7 7.5 2.6 50 4.5 SE 19 26 10 14 1028.1 1027.5 0.0
21/02:30am 12.0 7.6 2.7 53 4.1 SE 15 19 8 10 1028.3 1027.7 0.0
21/02:00am 11.7 7.3 2.7 54 3.9 SE 15 17 8 9 1028.4 1027.8 0.0
21/01:30am 12.3 7.6 3.0 53 4.2 SSE 17 19 9 10 1028.5 1027.9 0.0
21/01:00am 13.0 8.3 3.1 51 4.4 SSE 17 20 9 11 1028.4 1027.8 0.0
21/12:30am 13.1 8.8 3.2 51 4.4 SSE 15 19 8 10 1028.4 1027.8 0.0
21/12:00am 13.8 9.1 3.3 49 4.8 SSE 17 20 9 11 1028.4 1027.8 0.0
 
Date/Time
EST
Temp
°C
App
Temp
°C
Dew
Point
°C
Rel
Hum
%
Delta-T
°C
Wind Press
QNH
hPa
Press
MSL
hPa
Rain since
9am
mm
Dir  Spd
km/h
Gust
km/h
Spd
kts
Gust
kts
20/11:30pm 13.9 9.2 3.4 49 4.8 SSE 17 20 9 11 1028.4 1027.8 0.0
20/11:00pm 14.5 9.8 3.3 47 5.1 SSE 17 20 9 11 1028.5 1027.9 0.0
20/10:30pm 15.5 10.3 3.3 44 5.6 SSE 20 26 11 14 1028.5 1027.9 0.0
20/10:00pm 16.4 10.4 3.1 41 6.1 SSE 24 32 13 17 1028.4 1027.8 0.0
20/09:30pm 16.3 10.6 3.0 41 6.1 SSE 22 26 12 14 1028.4 1027.8 0.0
20/09:00pm 16.2 11.0 2.6 40 6.2 SSE 19 26 10 14 1028.3 1027.7 0.0
20/08:30pm 14.7 10.2 2.3 43 5.6 SSE 15 15 8 8 1028.0 1027.4 0.0
20/08:00pm 15.8 10.9 2.2 40 6.1 SSE 17 20 9 11 1028.0 1027.4 0.0
20/07:30pm 16.1 11.6 2.2 39 6.3 SSE 15 17 8 9 1027.7 1027.1 0.0
20/07:00pm 17.1 12.6 1.9 36 6.9 SSE 15 17 8 9 1027.4 1026.7 0.0
20/06:30pm 19.0 13.7 2.0 32 7.8 SE 19 26 10 14 1027.0 1026.3 0.0
20/06:00pm 20.0 13.7 1.4 29 8.5 SSE 24 32 13 17 1026.6 1026.0 0.0
20/05:30pm 20.9 14.2 1.7 28 9.0 SSE 26 32 14 17 1026.3 1025.7 0.0
20/05:00pm 21.5 14.5 1.7 27 9.2 SE 28 33 15 18 1026.1 1025.5 0.0
20/04:30pm 21.9 15.3 2.1 27 9.4 SE 26 35 14 19 1025.9 1025.3 0.0
20/04:00pm 22.2 16.0 2.3 27 9.4 SE 24 35 13 19 1025.9 1025.3 0.0
20/03:30pm 22.1 15.4 1.7 26 9.6 SE 26 39 14 21 1025.9 1025.3 0.0
20/03:00pm 21.6 15.0 2.3 28 9.1 SSE 26 44 14 24 1026.0 1025.4 0.0
20/02:30pm 21.2 14.4 3.0 30 8.7 SE 28 39 15 21 1025.9 1025.3 0.0
20/02:00pm 21.0 14.5 2.8 30 8.6 SE 26 43 14 23 1026.1 1025.5 0.0
20/01:30pm 21.5 15.6 4.1 32 8.5 SE 24 41 13 22 1026.5 1025.9 0.0
20/01:00pm 20.4 14.2 4.4 35 7.8 SSE 26 35 14 19 1027.1 1026.4 0.0
20/12:30pm 19.6 13.1 4.9 38 7.2 SSE 28 39 15 21 1027.6 1027.0 0.0
20/12:00pm 18.8 13.4 6.3 44 6.3 S 24 35 13 19 1028.0 1027.4 0.0
20/11:30am 17.6 12.3 6.8 49 5.4 S 24 32 13 17 1028.0 1027.4 0.0
20/11:00am 17.2 12.1 7.8 54 4.8 S 24 32 13 17 1028.4 1027.8 0.0
20/10:30am 15.5 10.7 7.5 59 4.0 S 22 30 12 16 1028.4 1027.8 0.0
20/10:00am 14.4 9.3 7.5 63 3.4 S 24 30 13 16 1028.3 1027.7 0.0
20/09:30am 13.2 8.3 7.0 66 3.0 S 22 26 12 14 1028.3 1027.7 0.0
20/09:00am 12.1 6.8 6.6 69 2.6 S 24 30 13 16 1028.2 1027.6 0.0
20/08:30am 10.8 6.0 5.8 71 2.3 S 20 26 11 14 1028.0 1027.4 0.0

Other formats

Comma delimited format used in spreadsheet applications
http://www.bom.gov.au/fwo/IDN60801/IDN60801.94691.axf

JavaScript Object Notation format (JSON) in row-major order
http://www.bom.gov.au/fwo/IDN60801/IDN60801.94691.json

Data quality

Most of these data are generated automatically and are frequently updated. Quality checks on data are not normally performed. It is possible for incorrect values to appear. Refer to information at About Latest Weather Observations and please check the disclaimer before using these data.